Time;durP1;ratioP1;P1;durP2;ratioP2;P2;SDS_P1;SDS_P2;PMS_P1;PMS_P2;Temp;Humidity;BMP_temperature;BMP_pressure;BME280_temperature;BME280_humidity;BME280_pressure;Samples;Min_cycle;Max_cycle;Signal;HPM_P1;HPM_P2
2024/03/07 00:02:21;;;;;;;;;;;;;;;1.75;100.00;96858.71;108117;1292;22532;-85
2024/03/07 00:04:47;;;;;;;;;;;;;;;1.77;100.00;96858.40;107199;1297;25226;-85
2024/03/07 00:07:14;;;;;;;;;;;;;;;1.76;100.00;96855.89;107222;1298;25252;-84
2024/03/07 00:09:40;;;;;;;;;;;;;;;1.75;100.00;96858.40;107181;1297;22584;-84
2024/03/07 00:12:07;;;;;;;;;;;;;;;1.75;100.00;96854.95;107317;1295;23905;-85
2024/03/07 00:14:35;;;;;;;;;;;;;;;1.75;100.00;96857.14;107249;1292;24185;-85
2024/03/07 00:17:02;;;;;;;;;;;;;;;1.75;100.00;96859.58;107319;1291;23287;-85
2024/03/07 00:19:29;;;;;;;;;;;;;;;1.77;100.00;96859.73;107430;1292;22547;-84
2024/03/07 00:21:56;;;;;;;;;;;;;;;1.80;100.00;96860.24;108786;1292;22494;-85
2024/03/07 00:24:27;;;;;;;;;;;;;;;1.79;100.00;96857.55;108639;1291;22453;-85
2024/03/07 00:26:53;;;;;;;;;;;;;;;1.78;100.00;96862.38;108532;1297;22444;-85
2024/03/07 00:29:20;;;;;;;;;;;;;;;1.78;100.00;96858.86;108498;1289;23119;-85
2024/03/07 00:31:47;;;;;;;;;;;;;;;1.77;100.00;96860.80;107666;1298;22468;-84
2024/03/07 00:34:16;;;;;;;;;;;;;;;1.74;100.00;96859.27;107250;1296;23701;-86
2024/03/07 00:36:43;;;;;;;;;;;;;;;1.73;100.00;96858.87;107389;1295;22543;-85
2024/03/07 00:39:11;;;;;;;;;;;;;;;1.73;100.00;96858.55;107292;1297;22514;-85
2024/03/07 00:41:38;;;;;;;;;;;;;;;1.73;100.00;96857.87;107604;1296;22662;-85
2024/03/07 00:44:06;;;;;;;;;;;;;;;1.73;100.00;96858.01;108821;1295;23292;-85
2024/03/07 00:46:32;;;;;;;;;;;;;;;1.75;100.00;96856.31;108651;1296;22416;-85
2024/03/07 00:49:00;;;;;;;;;;;;;;;1.77;100.00;96856.00;108685;1292;22425;-85
2024/03/07 00:51:26;;;;;;;;;;;;;;;1.78;100.00;96853.86;108649;1292;22441;-85
2024/03/07 00:53:53;;;;;;;;;;;;;;;1.79;100.00;96851.43;108661;1292;23181;-85
2024/03/07 00:56:20;;;;;;;;;;;;;;;1.81;100.00;96854.72;108641;1292;23173;-85
2024/03/07 00:58:48;;;;;;;;;;;;;;;1.80;100.00;96851.86;107908;1292;22514;-85
2024/03/07 01:01:21;;;;;;;;;;;;;;;1.81;100.00;96852.13;107609;1295;23296;-85
2024/03/07 01:03:48;;;;;;;;;;;;;;;1.82;100.00;96851.92;108647;1296;22465;-85
2024/03/07 01:06:14;;;;;;;;;;;;;;;1.83;100.00;96848.96;108626;1296;23061;-85
2024/03/07 01:08:41;;;;;;;;;;;;;;;1.81;100.00;96849.24;108820;1296;23510;-85
2024/03/07 01:11:12;;;;;;;;;;;;;;;1.80;100.00;96846.70;107734;1292;22530;-85
2024/03/07 01:13:38;;;;;;;;;;;;;;;1.80;100.00;96846.92;107556;1292;22672;-85
2024/03/07 01:16:05;;;;;;;;;;;;;;;1.79;100.00;96840.34;107358;1296;22550;-84
2024/03/07 01:18:35;;;;;;;;;;;;;;;1.77;100.00;96839.94;108696;1296;22487;-85
2024/03/07 01:21:01;;;;;;;;;;;;;;;1.77;100.00;96838.06;108772;1297;23301;-85
2024/03/07 01:23:28;;;;;;;;;;;;;;;1.78;100.00;96837.30;108567;1297;22641;-85
2024/03/07 01:25:56;;;;;;;;;;;;;;;1.79;100.00;96833.83;108633;1296;22462;-84
2024/03/07 01:28:23;;;;;;;;;;;;;;;1.78;100.00;96834.39;108721;1295;22574;-85
2024/03/07 01:30:50;;;;;;;;;;;;;;;1.78;100.00;96837.11;108664;1296;22444;-85
2024/03/07 01:33:16;;;;;;;;;;;;;;;1.78;100.00;96836.45;108857;1292;22458;-85
2024/03/07 01:35:43;;;;;;;;;;;;;;;1.79;100.00;96833.83;108638;1292;22551;-85
2024/03/07 01:38:11;;;;;;;;;;;;;;;1.78;100.00;96835.40;108829;1296;22912;-85
2024/03/07 01:40:37;;;;;;;;;;;;;;;1.78;100.00;96833.90;108838;1297;22461;-85
2024/03/07 01:43:05;;;;;;;;;;;;;;;1.78;100.00;96836.98;108500;1297;22567;-84
2024/03/07 01:45:32;;;;;;;;;;;;;;;1.76;100.00;96830.10;107248;1292;25418;-84
2024/03/07 01:47:58;;;;;;;;;;;;;;;1.75;100.00;96831.88;107573;1297;22521;-85
2024/03/07 01:50:25;;;;;;;;;;;;;;;1.74;100.00;96832.64;107556;1289;23953;-84
2024/03/07 01:52:51;;;;;;;;;;;;;;;1.72;100.00;96833.64;107282;1297;22774;-85
2024/03/07 01:55:18;;;;;;;;;;;;;;;1.71;100.00;96829.32;107312;1297;22628;-85
2024/03/07 01:57:45;;;;;;;;;;;;;;;1.71;100.00;96829.80;108055;1297;22617;-85
2024/03/07 02:00:12;;;;;;;;;;;;;;;1.71;100.00;96828.64;107314;1295;24174;-87
2024/03/07 02:02:40;;;;;;;;;;;;;;;1.69;100.00;96825.66;107270;1297;22592;-87
2024/03/07 02:05:06;;;;;;;;;;;;;;;1.69;100.00;96822.64;107259;1296;22518;-88
2024/03/07 02:07:33;;;;;;;;;;;;;;;1.67;100.00;96816.48;107312;1291;22579;-87
2024/03/07 02:10:00;;;;;;;;;;;;;;;1.61;100.00;96817.09;107349;1292;22565;-88
2024/03/07 02:12:26;;;;;;;;;;;;;;;1.58;100.00;96820.43;107099;1298;22649;-87
2024/03/07 02:14:53;;;;;;;;;;;;;;;1.55;100.00;96821.46;107559;1276;22549;-88
2024/03/07 02:17:20;;;;;;;;;;;;;;;1.51;100.00;96821.27;107543;1297;22520;-88
2024/03/07 02:19:46;;;;;;;;;;;;;;;1.47;100.00;96820.02;107517;1289;24306;-88
2024/03/07 02:22:13;;;;;;;;;;;;;;;1.46;100.00;96820.10;107317;1297;23864;-88
2024/03/07 02:24:39;;;;;;;;;;;;;;;1.46;100.00;96817.05;107283;1297;22543;-88
2024/03/07 02:27:07;;;;;;;;;;;;;;;1.47;100.00;96821.40;107296;1296;22524;-88
2024/03/07 02:29:34;;;;;;;;;;;;;;;1.47;100.00;96823.42;107292;1297;23590;-88
2024/03/07 02:32:01;;;;;;;;;;;;;;;1.48;100.00;96822.19;107176;1297;24208;-88
2024/03/07 02:34:29;;;;;;;;;;;;;;;1.47;100.00;96819.19;107570;1296;23192;-88
2024/03/07 02:36:55;;;;;;;;;;;;;;;1.44;100.00;96819.55;107342;1292;24222;-88
2024/03/07 02:39:22;;;;;;;;;;;;;;;1.43;100.00;96817.24;107277;1297;22566;-87
2024/03/07 02:41:49;;;;;;;;;;;;;;;1.42;100.00;96812.73;107253;1296;22661;-87
2024/03/07 02:44:16;;;;;;;;;;;;;;;1.41;100.00;96813.62;107317;1296;22587;-88
2024/03/07 02:46:42;;;;;;;;;;;;;;;1.43;100.00;96813.84;107166;1297;22582;-88
2024/03/07 02:49:09;;;;;;;;;;;;;;;1.44;100.00;96813.41;107178;1289;24196;-88
2024/03/07 02:51:35;;;;;;;;;;;;;;;1.42;100.00;96815.58;107115;1290;22585;-88
2024/03/07 02:54:05;;;;;;;;;;;;;;;1.40;100.00;96814.09;107281;1290;22528;-88
2024/03/07 02:56:31;;;;;;;;;;;;;;;1.39;100.00;96813.45;107245;1291;22540;-87
2024/03/07 02:58:58;;;;;;;;;;;;;;;1.38;100.00;96812.17;107245;1297;22513;-88
2024/03/07 03:01:25;;;;;;;;;;;;;;;1.36;100.00;96809.27;107288;1289;23047;-88
2024/03/07 03:03:53;;;;;;;;;;;;;;;1.33;100.00;96809.34;107290;1291;22505;-88
2024/03/07 03:06:22;;;;;;;;;;;;;;;1.30;100.00;96808.14;107505;1297;22522;-88
2024/03/07 03:08:49;;;;;;;;;;;;;;;1.29;100.00;96808.77;107172;1297;22529;-88
2024/03/07 03:11:16;;;;;;;;;;;;;;;1.27;100.00;96803.29;107533;1294;23205;-88
2024/03/07 03:13:43;;;;;;;;;;;;;;;1.28;100.00;96805.23;107274;1292;22520;-88
2024/03/07 03:16:12;;;;;;;;;;;;;;;1.28;100.00;96809.02;107282;1295;23932;-88
2024/03/07 03:18:38;;;;;;;;;;;;;;;1.26;100.00;96810.52;107294;1296;22512;-88
2024/03/07 03:21:05;;;;;;;;;;;;;;;1.25;100.00;96810.42;107197;1292;22508;-88
2024/03/07 03:23:31;;;;;;;;;;;;;;;1.26;100.00;96805.08;107211;1297;22532;-88
2024/03/07 03:25:59;;;;;;;;;;;;;;;1.26;100.00;96808.17;107321;1297;23781;-88
2024/03/07 03:28:26;;;;;;;;;;;;;;;1.27;100.00;96810.77;107346;1298;23936;-88
2024/03/07 03:30:52;;;;;;;;;;;;;;;1.28;100.00;96814.80;107291;1288;22531;-88
2024/03/07 03:33:20;;;;;;;;;;;;;;;1.29;100.00;96811.45;107586;1296;22555;-88
2024/03/07 03:35:47;;;;;;;;;;;;;;;1.29;100.00;96809.75;107255;1293;24194;-88
2024/03/07 03:38:13;;;;;;;;;;;;;;;1.31;100.00;96808.96;107518;1298;24202;-88
2024/03/07 03:40:40;;;;;;;;;;;;;;;1.31;100.00;96813.41;108214;1292;22518;-88
2024/03/07 03:43:07;;;;;;;;;;;;;;;1.29;100.00;96814.34;107134;1295;22609;-88
2024/03/07 03:45:33;;;;;;;;;;;;;;;1.29;100.00;96818.15;107299;1288;24228;-88
2024/03/07 03:48:00;;;;;;;;;;;;;;;1.27;100.00;96817.22;107277;1289;22552;-88
2024/03/07 03:50:28;;;;;;;;;;;;;;;1.27;100.00;96815.23;107275;1289;23359;-88
2024/03/07 03:52:55;;;;;;;;;;;;;;;1.27;100.00;96816.06;107232;1298;22529;-87
2024/03/07 03:55:22;;;;;;;;;;;;;;;1.27;100.00;96815.91;108423;1297;22547;-89
2024/03/07 03:57:49;;;;;;;;;;;;;;;1.28;100.00;96813.80;108614;1290;22500;-88
2024/03/07 04:00:16;;;;;;;;;;;;;;;1.29;100.00;96813.55;108187;1297;25388;-87
2024/03/07 04:02:47;;;;;;;;;;;;;;;1.29;100.00;96811.83;107281;1297;24058;-87
2024/03/07 04:05:14;;;;;;;;;;;;;;;1.28;100.00;96812.21;108607;1296;22466;-89
2024/03/07 04:07:44;;;;;;;;;;;;;;;1.26;100.00;96810.38;108815;1289;22459;-88
2024/03/07 04:10:10;;;;;;;;;;;;;;;1.25;100.00;96814.52;108625;1296;22454;-88
2024/03/07 04:12:37;;;;;;;;;;;;;;;1.24;100.00;96814.76;108432;1292;23511;-88
2024/03/07 04:15:05;;;;;;;;;;;;;;;1.25;100.00;96823.41;108625;1296;22464;-88
2024/03/07 04:17:33;;;;;;;;;;;;;;;1.25;100.00;96821.50;108636;1295;22425;-88
2024/03/07 04:20:00;;;;;;;;;;;;;;;1.28;100.00;96828.63;108593;1297;22909;-88
2024/03/07 04:22:27;;;;;;;;;;;;;;;1.30;100.00;96831.06;108558;1296;22427;-88
2024/03/07 04:24:55;;;;;;;;;;;;;;;1.31;100.00;96833.33;108780;1296;22467;-88
2024/03/07 04:27:21;;;;;;;;;;;;;;;1.34;100.00;96832.91;108599;1296;23227;-88
2024/03/07 04:29:49;;;;;;;;;;;;;;;1.35;100.00;96834.95;108805;1296;22468;-89
2024/03/07 04:32:16;;;;;;;;;;;;;;;1.35;100.00;96834.08;108636;1292;22452;-88
2024/03/07 04:34:43;;;;;;;;;;;;;;;1.33;100.00;96837.30;108636;1292;22513;-88
2024/03/07 04:37:10;;;;;;;;;;;;;;;1.32;100.00;96835.85;108618;1289;22447;-88
2024/03/07 04:39:38;;;;;;;;;;;;;;;1.30;100.00;96833.77;108813;1296;22471;-88
2024/03/07 04:42:05;;;;;;;;;;;;;;;1.31;100.00;96838.86;108605;1290;22445;-88
2024/03/07 04:44:32;;;;;;;;;;;;;;;1.28;100.00;96841.57;108605;1290;22464;-88
2024/03/07 04:47:00;;;;;;;;;;;;;;;1.26;100.00;96840.89;108609;1279;22463;-88
2024/03/07 04:49:27;;;;;;;;;;;;;;;1.22;100.00;96840.49;108772;1296;22471;-88
2024/03/07 04:51:54;;;;;;;;;;;;;;;1.19;100.00;96841.39;108586;1297;22432;-88
2024/03/07 04:54:21;;;;;;;;;;;;;;;1.17;100.00;96841.55;108657;1289;23566;-88
2024/03/07 04:56:47;;;;;;;;;;;;;;;1.15;100.00;96846.44;107326;1298;23839;-88
2024/03/07 04:59:14;;;;;;;;;;;;;;;1.15;100.00;96845.30;107251;1297;22517;-87
2024/03/07 05:01:42;;;;;;;;;;;;;;;1.13;100.00;96845.89;107316;1296;22969;-88
2024/03/07 05:04:09;;;;;;;;;;;;;;;1.12;100.00;96847.50;107244;1292;22553;-87
2024/03/07 05:06:35;;;;;;;;;;;;;;;1.08;100.00;96847.32;107254;1294;22608;-88
2024/03/07 05:09:03;;;;;;;;;;;;;;;1.04;100.00;96846.79;107277;1286;22508;-88
2024/03/07 05:11:30;;;;;;;;;;;;;;;1.03;100.00;96846.81;107255;1292;23731;-87
2024/03/07 05:13:57;;;;;;;;;;;;;;;1.03;100.00;96849.38;107257;1287;23159;-88
2024/03/07 05:16:27;;;;;;;;;;;;;;;1.01;100.00;96848.56;107232;1289;22627;-87
2024/03/07 05:18:54;;;;;;;;;;;;;;;1.00;100.00;96855.08;107108;1297;22527;-88
2024/03/07 05:24:00;;;;;;;;;;;;;;;0.96;100.00;96859.61;107462;1295;23742;-87
2024/03/07 05:26:27;;;;;;;;;;;;;;;0.94;100.00;96862.54;108202;1292;22534;-88
2024/03/07 05:28:56;;;;;;;;;;;;;;;0.90;100.00;96863.60;107311;1297;22507;-87
2024/03/07 05:31:22;;;;;;;;;;;;;;;0.87;100.00;96864.89;107363;1289;22560;-87
2024/03/07 05:33:49;;;;;;;;;;;;;;;0.84;100.00;96867.85;107532;1296;22465;-87
2024/03/07 05:36:15;;;;;;;;;;;;;;;0.84;100.00;96870.75;107153;1297;24369;-88
2024/03/07 05:38:45;;;;;;;;;;;;;;;0.85;100.00;96871.31;107325;1297;22524;-87
2024/03/07 05:41:12;;;;;;;;;;;;;;;0.85;100.00;96871.03;107573;1290;25410;-87
2024/03/07 05:43:38;;;;;;;;;;;;;;;0.82;100.00;96876.67;107092;1298;23822;-86
2024/03/07 05:46:06;;;;;;;;;;;;;;;0.81;100.00;96877.76;107237;1293;22909;-87
2024/03/07 05:48:33;;;;;;;;;;;;;;;0.79;100.00;96879.13;107262;1295;22517;-88
2024/03/07 05:51:00;;;;;;;;;;;;;;;0.77;100.00;96880.27;107334;1297;22524;-88
2024/03/07 05:53:26;;;;;;;;;;;;;;;0.76;100.00;96879.14;107176;1295;25277;-87
2024/03/07 05:55:53;;;;;;;;;;;;;;;0.76;100.00;96878.92;107368;1293;22543;-88
2024/03/07 05:58:22;;;;;;;;;;;;;;;0.78;100.00;96874.42;107348;1295;22603;-87
2024/03/07 06:00:49;;;;;;;;;;;;;;;0.76;100.00;96876.94;107351;1297;22560;-88
2024/03/07 06:03:17;;;;;;;;;;;;;;;0.73;100.00;96879.86;107189;1297;25213;-88
2024/03/07 06:05:47;;;;;;;;;;;;;;;0.70;100.00;96883.68;108646;1292;22524;-89
2024/03/07 06:08:16;;;;;;;;;;;;;;;0.70;100.00;96883.02;108776;1296;22439;-88
2024/03/07 06:10:43;;;;;;;;;;;;;;;0.71;100.00;96881.59;108520;1297;22449;-89
2024/03/07 06:13:13;;;;;;;;;;;;;;;0.69;100.00;96881.35;108589;1295;22412;-88
2024/03/07 06:15:40;;;;;;;;;;;;;;;0.70;100.00;96889.66;108595;1297;23210;-88
2024/03/07 06:18:10;;;;;;;;;;;;;;;0.69;100.00;96881.86;108573;1296;22452;-88
2024/03/07 06:20:37;;;;;;;;;;;;;;;0.67;100.00;96889.88;108214;1295;22537;-89
2024/03/07 06:23:06;;;;;;;;;;;;;;;0.66;100.00;96890.94;107293;1297;22766;-90
2024/03/07 06:25:47;;;;;;;;;;;;;;;0.65;100.00;96890.66;107162;1295;22632;-89
2024/03/07 06:28:13;;;;;;;;;;;;;;;0.66;100.00;96889.63;107308;1293;22521;-88
2024/03/07 06:30:41;;;;;;;;;;;;;;;0.67;100.00;96891.77;107314;1292;22967;-89
2024/03/07 06:33:08;;;;;;;;;;;;;;;0.65;100.00;96889.66;107308;1297;22507;-88
2024/03/07 06:35:38;;;;;;;;;;;;;;;0.63;100.00;96891.13;107318;1295;24182;-88
2024/03/07 06:38:05;;;;;;;;;;;;;;;0.61;100.00;96890.77;107304;1297;22787;-88
2024/03/07 06:40:32;;;;;;;;;;;;;;;0.60;100.00;96888.48;107266;1295;22536;-88
2024/03/07 06:42:59;;;;;;;;;;;;;;;0.59;100.00;96893.10;107230;1297;24158;-88
2024/03/07 06:45:26;;;;;;;;;;;;;;;0.57;100.00;96889.81;107281;1289;22582;-88
2024/03/07 06:47:52;;;;;;;;;;;;;;;0.57;100.00;96897.34;107195;1297;22481;-87
2024/03/07 06:50:23;;;;;;;;;;;;;;;0.57;100.00;96897.67;107152;1294;22573;-88
2024/03/07 06:52:49;;;;;;;;;;;;;;;0.58;100.00;96897.27;107285;1297;23061;-88
2024/03/07 06:55:16;;;;;;;;;;;;;;;0.57;100.00;96896.51;107264;1297;22516;-89
2024/03/07 06:57:43;;;;;;;;;;;;;;;0.57;100.00;96894.98;107295;1297;22525;-87
2024/03/07 07:00:11;;;;;;;;;;;;;;;0.53;100.00;96901.40;107548;1292;22513;-88
2024/03/07 07:02:38;;;;;;;;;;;;;;;0.50;100.00;96904.34;107191;1297;22550;-88
2024/03/07 07:05:10;;;;;;;;;;;;;;;0.49;100.00;96906.09;107545;1292;22533;-88
2024/03/07 07:07:43;;;;;;;;;;;;;;;0.48;100.00;96913.16;107643;1297;23154;-88
2024/03/07 07:10:15;;;;;;;;;;;;;;;0.47;100.00;96907.80;107249;1290;22820;-88
2024/03/07 07:12:43;;;;;;;;;;;;;;;0.46;100.00;96913.83;108324;1295;23331;-88
2024/03/07 07:15:10;;;;;;;;;;;;;;;0.47;100.00;96914.23;107885;1295;24232;-88
2024/03/07 07:17:37;;;;;;;;;;;;;;;0.47;100.00;96913.91;107307;1297;22817;-88
2024/03/07 07:20:09;;;;;;;;;;;;;;;0.45;100.00;96907.42;107562;1290;25319;-89
2024/03/07 07:22:39;;;;;;;;;;;;;;;0.42;100.00;96912.56;108008;1297;24180;-88
2024/03/07 07:25:06;;;;;;;;;;;;;;;0.39;100.00;96911.23;107166;1296;22528;-88
2024/03/07 07:27:33;;;;;;;;;;;;;;;0.40;100.00;96915.80;107209;1298;24021;-88
2024/03/07 07:29:59;;;;;;;;;;;;;;;0.40;100.00;96916.59;107295;1297;24941;-88
2024/03/07 07:32:27;;;;;;;;;;;;;;;0.39;100.00;96915.85;107357;1297;22556;-88
2024/03/07 07:34:55;;;;;;;;;;;;;;;0.38;100.00;96914.42;107270;1297;22717;-88
2024/03/07 07:37:22;;;;;;;;;;;;;;;0.35;100.00;96914.41;107387;1293;22613;-84
2024/03/07 07:39:49;;;;;;;;;;;;;;;0.35;100.00;96918.86;107263;1289;22591;-86
2024/03/07 07:42:16;;;;;;;;;;;;;;;0.36;100.00;96917.95;107546;1296;22531;-85
2024/03/07 07:44:43;;;;;;;;;;;;;;;0.36;100.00;96912.84;107271;1295;24564;-85
2024/03/07 07:47:10;;;;;;;;;;;;;;;0.37;100.00;96911.87;107287;1292;24228;-85
2024/03/07 07:49:41;;;;;;;;;;;;;;;0.38;100.00;96914.56;107323;1292;23212;-85
2024/03/07 07:52:08;;;;;;;;;;;;;;;0.37;100.00;96916.86;107292;1295;22565;-85
2024/03/07 07:54:35;;;;;;;;;;;;;;;0.34;100.00;96917.21;107198;1297;22522;-84
2024/03/07 07:57:01;;;;;;;;;;;;;;;0.34;100.00;96914.20;107270;1297;23100;-85
2024/03/07 07:59:28;;;;;;;;;;;;;;;0.34;100.00;96912.64;107222;1296;22632;-85
2024/03/07 08:01:55;;;;;;;;;;;;;;;0.35;100.00;96912.22;107426;1295;22508;-85
2024/03/07 08:04:21;;;;;;;;;;;;;;;0.33;100.00;96914.54;107224;1297;24215;-85
2024/03/07 08:06:48;;;;;;;;;;;;;;;0.32;100.00;96916.67;107253;1289;22630;-85
2024/03/07 08:09:16;;;;;;;;;;;;;;;0.32;100.00;96914.64;107622;1293;22547;-84
2024/03/07 08:11:42;;;;;;;;;;;;;;;0.32;100.00;96911.58;107229;1294;22543;-85
2024/03/07 08:14:09;;;;;;;;;;;;;;;0.34;100.00;96910.94;107279;1297;23142;-85
2024/03/07 08:16:35;;;;;;;;;;;;;;;0.37;100.00;96912.73;107244;1297;22538;-84
2024/03/07 08:19:03;;;;;;;;;;;;;;;0.39;100.00;96915.69;107107;1297;22618;-85
2024/03/07 08:21:31;;;;;;;;;;;;;;;0.38;100.00;96910.61;107125;1297;24205;-85
2024/03/07 08:23:58;;;;;;;;;;;;;;;0.36;100.00;96910.74;107130;1298;22566;-85
2024/03/07 08:26:25;;;;;;;;;;;;;;;0.30;100.00;96913.42;107303;1297;22488;-85
2024/03/07 08:28:51;;;;;;;;;;;;;;;0.26;100.00;96915.21;107218;1295;22542;-84
2024/03/07 08:31:18;;;;;;;;;;;;;;;0.25;100.00;96918.02;107290;1296;24198;-85
2024/03/07 08:33:45;;;;;;;;;;;;;;;0.25;100.00;96922.04;107302;1295;22515;-85
2024/03/07 08:36:11;;;;;;;;;;;;;;;0.25;100.00;96927.02;107555;1297;24189;-85
2024/03/07 08:38:38;;;;;;;;;;;;;;;0.26;100.00;96925.43;107267;1293;22506;-85
2024/03/07 08:41:04;;;;;;;;;;;;;;;0.26;100.00;96925.04;107355;1295;22542;-85
2024/03/07 08:43:31;;;;;;;;;;;;;;;0.27;100.00;96923.63;107290;1295;23942;-85
2024/03/07 08:45:58;;;;;;;;;;;;;;;0.29;100.00;96925.17;107551;1297;22553;-86
2024/03/07 08:48:24;;;;;;;;;;;;;;;0.33;100.00;96923.77;107259;1295;22598;-85
2024/03/07 08:50:51;;;;;;;;;;;;;;;0.33;100.00;96929.40;107262;1295;24970;-85
2024/03/07 08:53:18;;;;;;;;;;;;;;;0.34;100.00;96927.64;107314;1293;22536;-84
2024/03/07 08:55:45;;;;;;;;;;;;;;;0.35;100.00;96924.82;107308;1286;22521;-84
2024/03/07 08:58:11;;;;;;;;;;;;;;;0.38;100.00;96924.42;107199;1297;22542;-85
2024/03/07 09:00:38;;;;;;;;;;;;;;;0.35;100.00;96923.80;107240;1298;22569;-86
2024/03/07 09:03:09;;;;;;;;;;;;;;;0.34;100.00;96927.09;107264;1289;22537;-85
2024/03/07 09:05:35;;;;;;;;;;;;;;;0.34;100.00;96935.95;107294;1295;23027;-84
2024/03/07 09:08:03;;;;;;;;;;;;;;;0.33;100.00;96938.41;107223;1281;23561;-88
2024/03/07 09:10:30;;;;;;;;;;;;;;;0.33;100.00;96940.48;108791;1295;23191;-88
2024/03/07 09:12:57;;;;;;;;;;;;;;;0.34;100.00;96941.92;107915;1292;23259;-88
2024/03/07 09:15:23;;;;;;;;;;;;;;;0.38;100.00;96937.06;107316;1297;23221;-88
2024/03/07 09:17:50;;;;;;;;;;;;;;;0.37;100.00;96941.71;107264;1297;22518;-88
2024/03/07 09:20:18;;;;;;;;;;;;;;;0.39;100.00;96946.34;107177;1296;223136;-88
2024/03/07 09:22:45;;;;;;;;;;;;;;;0.39;100.00;96946.52;107209;1295;23211;-88
2024/03/07 09:25:12;;;;;;;;;;;;;;;0.38;100.00;96947.94;107231;1297;22487;-87
2024/03/07 09:27:42;;;;;;;;;;;;;;;0.39;100.00;96945.67;107303;1297;22531;-88
2024/03/07 09:30:11;;;;;;;;;;;;;;;0.40;100.00;96948.14;107311;1297;22511;-88
2024/03/07 09:32:41;;;;;;;;;;;;;;;0.40;100.00;96953.25;107532;1290;22562;-88
2024/03/07 09:35:13;;;;;;;;;;;;;;;0.37;100.00;96948.52;107208;1298;22598;-89
2024/03/07 09:37:43;;;;;;;;;;;;;;;0.32;100.00;96951.06;107308;1293;22528;-89
2024/03/07 09:40:11;;;;;;;;;;;;;;;0.32;100.00;96953.98;107257;1297;22601;-88
2024/03/07 09:42:54;;;;;;;;;;;;;;;0.32;100.00;96954.66;107356;1295;23013;-88
2024/03/07 09:45:22;;;;;;;;;;;;;;;0.33;100.00;96959.07;107288;1295;22533;-88
2024/03/07 09:47:49;;;;;;;;;;;;;;;0.35;100.00;96962.17;107317;1295;25398;-88
2024/03/07 09:50:19;;;;;;;;;;;;;;;0.35;100.00;96961.79;107309;1295;24358;-88
2024/03/07 09:52:45;;;;;;;;;;;;;;;0.32;100.00;96963.55;107299;1297;22733;-88
2024/03/07 09:55:13;;;;;;;;;;;;;;;0.31;100.00;96958.95;107287;1289;22557;-89
2024/03/07 09:57:39;;;;;;;;;;;;;;;0.31;100.00;96959.48;107515;1297;23858;-88
2024/03/07 10:00:18;;;;;;;;;;;;;;;0.30;100.00;96962.45;107243;1292;24343;-88
2024/03/07 10:02:44;;;;;;;;;;;;;;;0.30;100.00;96957.84;107341;1297;23469;-88
2024/03/07 10:05:11;;;;;;;;;;;;;;;0.28;100.00;96955.23;107265;1289;22528;-88
2024/03/07 10:07:37;;;;;;;;;;;;;;;0.29;100.00;96960.61;107244;1295;25220;-89
2024/03/07 10:10:09;;;;;;;;;;;;;;;0.31;100.00;96960.02;107124;1297;22483;-88
2024/03/07 10:12:37;;;;;;;;;;;;;;;0.28;100.00;96960.33;108619;1297;23193;-89
2024/03/07 10:15:10;;;;;;;;;;;;;;;0.29;100.00;96959.98;107640;1296;25481;-89
2024/03/07 10:17:37;;;;;;;;;;;;;;;0.28;100.00;96957.64;107493;1292;25249;-89
2024/03/07 10:20:04;;;;;;;;;;;;;;;0.28;100.00;96961.59;107580;1297;22581;-89
2024/03/07 10:22:30;;;;;;;;;;;;;;;0.27;100.00;96958.05;107256;1297;22546;-88
2024/03/07 10:24:57;;;;;;;;;;;;;;;0.26;100.00;96964.77;107301;1297;22528;-88
2024/03/07 10:27:24;;;;;;;;;;;;;;;0.25;100.00;96966.74;107508;1279;22545;-89
2024/03/07 10:29:53;;;;;;;;;;;;;;;0.26;100.00;96973.48;107289;1295;22527;-88
2024/03/07 10:32:23;;;;;;;;;;;;;;;0.25;100.00;96971.98;107202;1297;22521;-88
2024/03/07 10:34:50;;;;;;;;;;;;;;;0.25;100.00;96974.89;107315;1297;23097;-88
2024/03/07 10:37:17;;;;;;;;;;;;;;;0.23;100.00;96973.67;107292;1297;22526;-88
2024/03/07 10:39:44;;;;;;;;;;;;;;;0.22;100.00;96976.85;107554;1297;23880;-89
2024/03/07 10:42:15;;;;;;;;;;;;;;;0.22;100.00;96983.83;107659;1295;22536;-88
2024/03/07 10:44:45;;;;;;;;;;;;;;;0.23;100.00;96985.79;107502;1286;22613;-88
2024/03/07 10:47:15;;;;;;;;;;;;;;;0.23;100.00;96982.90;108605;1296;22459;-88
2024/03/07 10:49:44;;;;;;;;;;;;;;;0.26;100.00;96987.96;108583;1297;22455;-89
2024/03/07 10:52:12;;;;;;;;;;;;;;;0.28;100.00;96984.23;108629;1293;23075;-89
2024/03/07 10:54:49;;;;;;;;;;;;;;;0.29;100.00;96983.31;108554;1296;23232;-89
2024/03/07 10:57:21;;;;;;;;;;;;;;;0.28;100.00;96987.48;108606;1296;23027;-89
2024/03/07 10:59:49;;;;;;;;;;;;;;;0.27;100.00;96988.89;108447;1293;22463;-88
2024/03/07 11:02:19;;;;;;;;;;;;;;;0.26;100.00;96989.13;108605;1296;22456;-89
2024/03/07 11:04:49;;;;;;;;;;;;;;;0.26;100.00;96993.59;108259;1297;23949;-88
2024/03/07 11:07:16;;;;;;;;;;;;;;;0.26;100.00;96992.36;107296;1297;24008;-88
2024/03/07 11:09:43;;;;;;;;;;;;;;;0.25;100.00;96987.66;107241;1297;25394;-88
2024/03/07 11:12:11;;;;;;;;;;;;;;;0.26;100.00;96985.25;107170;1297;22536;-88
2024/03/07 11:14:38;;;;;;;;;;;;;;;0.28;100.00;96983.23;107284;1296;22565;-89
2024/03/07 11:17:04;;;;;;;;;;;;;;;0.28;100.00;96983.38;107253;1292;22546;-88
2024/03/07 11:19:36;;;;;;;;;;;;;;;0.26;100.00;96982.33;107534;1296;22524;-89
2024/03/07 11:22:15;;;;;;;;;;;;;;;0.23;100.00;96986.09;107230;1297;23920;-88
2024/03/07 11:24:42;;;;;;;;;;;;;;;0.21;100.00;96990.16;107134;1290;23907;-88
2024/03/07 11:27:09;;;;;;;;;;;;;;;0.21;100.00;96989.17;107129;1295;22524;-88
2024/03/07 11:29:43;;;;;;;;;;;;;;;0.20;100.00;96990.23;107297;1290;22675;-88
2024/03/07 11:32:13;;;;;;;;;;;;;;;0.23;100.00;96993.31;107318;1289;23317;-88
2024/03/07 11:34:46;;;;;;;;;;;;;;;0.25;100.00;96989.89;107147;1297;23223;-88
2024/03/07 11:37:33;;;;;;;;;;;;;;;0.24;100.00;96991.98;108639;1292;22471;-88
2024/03/07 11:40:08;;;;;;;;;;;;;;;0.25;100.00;96992.09;108583;1296;22506;-88
2024/03/07 11:42:35;;;;;;;;;;;;;;;0.27;100.00;96988.92;107302;1297;22523;-88
2024/03/07 11:45:04;;;;;;;;;;;;;;;0.27;100.00;96993.16;107198;1297;23198;-87
2024/03/07 11:47:35;;;;;;;;;;;;;;;0.27;100.00;96995.38;107296;1290;24253;-88
2024/03/07 11:50:02;;;;;;;;;;;;;;;0.24;100.00;96995.90;107108;1293;22566;-87
2024/03/07 11:52:28;;;;;;;;;;;;;;;0.23;100.00;96996.35;107228;1297;22765;-88
2024/03/07 11:55:03;;;;;;;;;;;;;;;0.22;100.00;96995.73;107214;1297;22534;-88
2024/03/07 11:57:32;;;;;;;;;;;;;;;0.22;100.00;96993.70;107574;1289;22561;-87
2024/03/07 12:00:00;;;;;;;;;;;;;;;0.20;100.00;96994.51;107323;1297;23420;-88
2024/03/07 12:02:29;;;;;;;;;;;;;;;0.19;100.00;96989.96;107303;1292;22702;-88
2024/03/07 12:04:56;;;;;;;;;;;;;;;0.20;100.00;96985.48;107536;1297;24332;-88
2024/03/07 12:07:22;;;;;;;;;;;;;;;0.21;100.00;96979.61;107301;1292;23785;-88
2024/03/07 12:09:53;;;;;;;;;;;;;;;0.21;100.00;96975.23;107256;1297;24782;-88
2024/03/07 12:12:21;;;;;;;;;;;;;;;0.20;100.00;96972.69;107283;1293;22520;-88
2024/03/07 12:14:48;;;;;;;;;;;;;;;0.19;100.00;96971.59;107270;1292;22598;-88
2024/03/07 12:17:16;;;;;;;;;;;;;;;0.17;100.00;96969.83;107326;1297;22509;-87
2024/03/07 12:19:42;;;;;;;;;;;;;;;0.17;100.00;96971.55;107251;1297;22657;-88
2024/03/07 12:22:12;;;;;;;;;;;;;;;0.16;100.00;96975.20;107287;1296;22521;-88
2024/03/07 12:24:40;;;;;;;;;;;;;;;0.13;100.00;96969.93;107592;1297;22559;-87
2024/03/07 12:27:08;;;;;;;;;;;;;;;0.12;100.00;96978.99;107086;1297;23761;-87
2024/03/07 12:29:38;;;;;;;;;;;;;;;0.14;100.00;96975.80;107327;1297;24102;-88
2024/03/07 12:32:06;;;;;;;;;;;;;;;0.16;100.00;96981.14;107146;1296;24182;-87
2024/03/07 12:34:36;;;;;;;;;;;;;;;0.15;100.00;96982.91;108335;1292;23261;-88
2024/03/07 12:37:03;;;;;;;;;;;;;;;0.17;100.00;96983.29;107246;1282;22922;-87
2024/03/07 12:39:35;;;;;;;;;;;;;;;0.21;100.00;96982.50;107187;1297;24232;-88
2024/03/07 12:42:04;;;;;;;;;;;;;;;0.23;100.00;96974.91;107295;1297;23221;-88